CheckWX is a tool to help pilots better visualize weather data.  It is not intended as a substitute for an official pre-flight weather briefing.

20:26:03 UTC

WSSS TAF
Singapore Changi International Airport
Singapore, Singapore
TAF WSSS 281700Z 2818/3000 35009KT 9999 FEW015 SCT020 TEMPO 2905/2909 3000 TSRA FEW012CB BKN015

Jan-28@
18:00 UTC

Jan-28 @ 18:00 UTC

Jan-30@
00:00 UTC

Jan-30 @ 00:00 UTC

TAF WSSS 281700Z 2818/3000 35009KT 9999 FEW015 SCT020
Wind
  • 350° at 9 KTS
Cloud Levels
  • Few at 1,500' AGL
  • Scattered at 2,000' AGL

Jan-29@
05:00 UTC

Jan-29 @ 05:00 UTC

Jan-29@
09:00 UTC

Jan-29 @ 09:00 UTC

TEMPO 2905/2909 3000 TSRA FEW012CB BKN015

Temporary

Temporary Changes expected for less than half the time period

Conditions
Thunderstorm, Rain
Cloud Levels
  • Few at 1,200' AGL
  • Broken at 1,500' AGL